Time,TemperatureF,DewpointF,PressureIn,WindDirection,WindDirectionDegrees,WindSpeedMPH,WindSpeedGustMPH,Humidity,HourlyPrecipIn,Conditions,Clouds,dailyrainin,SolarRadiationWatts/m^2,SoftwareType,DateUTC
2013-11-02 00:01:00,36.0,35.0,-100.00,NW,318,1.0,7.0,95,0.00,,,0.00,0.000000,,2013-11-02 05:01:00,
2013-11-02 00:42:00,36.0,35.0,-100.00,NW,318,1.0,7.0,95,0.00,,,0.00,0.000000,,2013-11-02 05:42:00,
2013-11-02 00:52:00,36.0,35.0,-100.00,NW,318,1.0,7.0,95,0.00,,,0.00,0.000000,,2013-11-02 05:52:00,
2013-11-02 01:01:00,35.0,34.0,-100.00,WSW,243,0.0,2.0,97,0.00,,,0.00,0.000000,,2013-11-02 06:01:00,
2013-11-02 01:43:00,35.0,34.0,-100.00,WSW,243,0.0,2.0,97,0.00,,,0.00,0.000000,,2013-11-02 06:43:00,
2013-11-02 01:52:00,35.0,34.0,-100.00,WSW,243,0.0,2.0,97,0.00,,,0.00,0.000000,,2013-11-02 06:52:00,
2013-11-02 02:01:00,35.0,34.0,-100.00,SW,234,2.0,2.0,98,0.00,,,0.00,0.000000,,2013-11-02 07:01:00,
2013-11-02 02:42:00,35.0,34.0,-100.00,SW,234,2.0,2.0,98,0.00,,,0.00,0.000000,,2013-11-02 07:42:00,
2013-11-02 02:52:00,35.0,34.0,-100.00,SW,234,2.0,2.0,98,0.00,,,0.00,0.000000,,2013-11-02 07:52:00,
2013-11-02 03:01:00,35.0,34.0,-100.00,West,264,2.0,5.0,98,0.00,,,0.00,0.000000,,2013-11-02 08:01:00,
2013-11-02 03:22:00,35.0,34.0,-100.00,West,264,2.0,5.0,98,0.00,,,0.00,0.000000,,2013-11-02 08:22:00,
2013-11-02 03:32:00,35.0,34.0,-100.00,West,264,2.0,5.0,98,0.00,,,0.00,0.000000,,2013-11-02 08:32:00,
2013-11-02 03:42:00,35.0,34.0,-100.00,West,264,2.0,5.0,98,0.00,,,0.00,0.000000,,2013-11-02 08:42:00,
2013-11-02 03:52:00,35.0,34.0,-100.00,West,264,2.0,5.0,98,0.00,,,0.00,0.000000,,2013-11-02 08:52:00,
2013-11-02 04:01:00,35.0,34.0,-100.00,WSW,246,0.0,3.0,98,0.00,,,0.00,0.000000,,2013-11-02 09:01:00,
2013-11-02 04:22:00,35.0,34.0,-100.00,WSW,246,0.0,3.0,98,0.00,,,0.00,0.000000,,2013-11-02 09:22:00,
2013-11-02 04:33:00,35.0,34.0,-100.00,WSW,246,0.0,3.0,98,0.00,,,0.00,0.000000,,2013-11-02 09:33:00,
2013-11-02 04:43:00,35.0,34.0,-100.00,WSW,246,0.0,3.0,98,0.00,,,0.00,0.000000,,2013-11-02 09:43:00,
2013-11-02 04:53:00,35.0,34.0,-100.00,WSW,246,0.0,3.0,98,0.00,,,0.00,0.000000,,2013-11-02 09:53:00,
2013-11-02 05:01:00,34.0,33.0,-100.00,East,94,0.0,5.0,97,0.00,,,0.00,0.000000,,2013-11-02 10:01:00,
2013-11-02 05:42:00,34.0,33.0,-100.00,East,94,0.0,5.0,97,0.00,,,0.00,0.000000,,2013-11-02 10:42:00,
2013-11-02 05:53:00,34.0,33.0,-100.00,East,94,0.0,5.0,97,0.00,,,0.00,0.000000,,2013-11-02 10:53:00,
2013-11-02 06:01:00,34.0,33.0,-100.00,South,183,0.0,2.0,97,0.00,,,0.00,0.000000,,2013-11-02 11:01:00,
2013-11-02 06:42:00,34.0,33.0,-100.00,South,183,0.0,2.0,97,0.00,,,0.00,0.000000,,2013-11-02 11:42:00,
2013-11-02 06:52:00,34.0,33.0,-100.00,South,183,0.0,2.0,97,0.00,,,0.00,0.000000,,2013-11-02 11:52:00,
2013-11-02 07:01:00,34.0,34.0,-100.00,NNW,335,1.0,3.0,98,0.00,,,0.00,0.000000,,2013-11-02 12:01:00,
2013-11-02 07:42:00,34.0,34.0,-100.00,NNW,335,1.0,3.0,98,0.00,,,0.00,0.000000,,2013-11-02 12:42:00,
2013-11-02 07:52:00,34.0,34.0,-100.00,NNW,335,1.0,3.0,98,0.00,,,0.00,0.000000,,2013-11-02 12:52:00,
2013-11-02 08:01:00,34.0,34.0,-100.00,West,263,2.0,4.0,98,0.00,,,0.00,2.000000,,2013-11-02 13:01:00,
2013-11-02 08:42:00,34.0,34.0,-100.00,West,263,2.0,4.0,98,0.00,,,0.00,2.000000,,2013-11-02 13:42:00,
2013-11-02 08:52:00,34.0,34.0,-100.00,West,263,2.0,4.0,98,0.00,,,0.00,2.000000,,2013-11-02 13:52:00,
2013-11-02 09:01:00,34.0,33.0,-100.00,West,274,2.0,4.0,97,0.00,,,0.00,31.000000,,2013-11-02 14:01:00,
2013-11-02 09:42:00,34.0,33.0,-100.00,West,274,2.0,4.0,97,0.00,,,0.00,31.000000,,2013-11-02 14:42:00,
2013-11-02 09:52:00,34.0,33.0,-100.00,West,274,2.0,4.0,97,0.00,,,0.00,31.000000,,2013-11-02 14:52:00,
2013-11-02 10:01:00,35.0,33.0,-100.00,NW,319,3.0,5.0,94,0.00,,,0.00,62.000000,,2013-11-02 15:01:00,
2013-11-02 10:43:00,35.0,33.0,-100.00,NW,319,3.0,5.0,94,0.00,,,0.00,62.000000,,2013-11-02 15:43:00,
2013-11-02 10:53:00,35.0,33.0,-100.00,NW,319,3.0,5.0,94,0.00,,,0.00,62.000000,,2013-11-02 15:53:00,
2013-11-02 11:01:00,37.0,34.0,-100.00,West,280,3.0,5.0,89,0.00,,,0.00,152.000000,,2013-11-02 16:01:00,
2013-11-02 11:43:00,37.0,34.0,-100.00,West,280,3.0,5.0,89,0.00,,,0.00,152.000000,,2013-11-02 16:43:00,
2013-11-02 11:54:00,37.0,34.0,-100.00,West,280,3.0,5.0,89,0.00,,,0.00,152.000000,,2013-11-02 16:54:00,
2013-11-02 12:01:00,37.0,35.0,-100.00,NW,312,4.0,7.0,91,0.00,,,0.00,88.000000,,2013-11-02 17:01:00,
2013-11-02 12:43:00,37.0,35.0,-100.00,NW,312,4.0,7.0,91,0.00,,,0.00,88.000000,,2013-11-02 17:43:00,
2013-11-02 12:53:00,37.0,35.0,-100.00,NW,312,4.0,7.0,91,0.00,,,0.00,88.000000,,2013-11-02 17:53:00,
2013-11-02 13:01:00,37.0,34.0,-100.00,WNW,290,5.0,7.0,88,0.00,,,0.00,154.000000,,2013-11-02 18:01:00,
2013-11-02 13:42:00,37.0,34.0,-100.00,WNW,290,5.0,7.0,88,0.00,,,0.00,154.000000,,2013-11-02 18:42:00,
2013-11-02 13:52:00,37.0,34.0,-100.00,WNW,290,5.0,7.0,88,0.00,,,0.00,154.000000,,2013-11-02 18:52:00,
2013-11-02 14:01:00,38.0,34.0,-100.00,NW,317,5.0,8.0,86,0.00,,,0.00,193.000000,,2013-11-02 19:01:00,
2013-11-02 14:42:00,38.0,34.0,-100.00,NW,317,5.0,8.0,86,0.00,,,0.00,193.000000,,2013-11-02 19:42:00,
2013-11-02 14:52:00,38.0,34.0,-100.00,NW,317,5.0,8.0,86,0.00,,,0.00,193.000000,,2013-11-02 19:52:00,
2013-11-02 15:01:00,40.0,33.0,-100.00,North,3,3.0,7.0,76,0.00,,,0.00,431.000000,,2013-11-02 20:01:00,
2013-11-02 15:22:00,40.0,33.0,-100.00,North,3,3.0,7.0,76,0.00,,,0.00,431.000000,,2013-11-02 20:22:00,
2013-11-02 15:32:00,40.0,33.0,-100.00,North,3,3.0,7.0,76,0.00,,,0.00,431.000000,,2013-11-02 20:32:00,
2013-11-02 15:43:00,40.0,33.0,-100.00,North,3,3.0,7.0,76,0.00,,,0.00,431.000000,,2013-11-02 20:43:00,
2013-11-02 15:53:00,40.0,33.0,-100.00,North,3,3.0,7.0,76,0.00,,,0.00,431.000000,,2013-11-02 20:53:00,
2013-11-02 16:01:00,39.0,34.0,-100.00,WNW,287,3.0,6.0,81,0.00,,,0.00,140.000000,,2013-11-02 21:01:00,
2013-11-02 16:22:00,39.0,34.0,-100.00,WNW,287,3.0,6.0,81,0.00,,,0.00,140.000000,,2013-11-02 21:22:00,
2013-11-02 16:33:00,39.0,34.0,-100.00,WNW,287,3.0,6.0,81,0.00,,,0.00,140.000000,,2013-11-02 21:33:00,
2013-11-02 16:44:00,39.0,34.0,-100.00,WNW,287,3.0,6.0,81,0.00,,,0.00,140.000000,,2013-11-02 21:44:00,
2013-11-02 16:54:00,39.0,34.0,-100.00,WNW,287,3.0,6.0,81,0.00,,,0.00,140.000000,,2013-11-02 21:54:00,
2013-11-02 17:01:00,37.0,34.0,-100.00,NNE,26,4.0,8.0,90,0.00,,,0.00,83.000000,,2013-11-02 22:01:00,
2013-11-02 17:24:00,37.0,34.0,-100.00,NNE,26,4.0,8.0,90,0.00,,,0.00,83.000000,,2013-11-02 22:24:00,
2013-11-02 17:34:00,37.0,34.0,-100.00,NNE,26,4.0,8.0,90,0.00,,,0.00,83.000000,,2013-11-02 22:34:00,
2013-11-02 17:44:00,37.0,34.0,-100.00,NNE,26,4.0,8.0,90,0.00,,,0.00,83.000000,,2013-11-02 22:44:00,
2013-11-02 17:54:00,37.0,34.0,-100.00,NNE,26,4.0,8.0,90,0.00,,,0.00,83.000000,,2013-11-02 22:54:00,
2013-11-02 18:01:00,33.0,32.0,-100.00,SE,142,2.0,6.0,96,0.00,,,0.00,20.000000,,2013-11-02 23:01:00,
2013-11-02 18:42:00,33.0,32.0,-100.00,SE,142,2.0,6.0,96,0.00,,,0.00,20.000000,,2013-11-02 23:42:00,
2013-11-02 18:52:00,33.0,32.0,-100.00,SE,142,2.0,6.0,96,0.00,,,0.00,20.000000,,2013-11-02 23:52:00,
2013-11-02 19:01:00,32.0,31.0,-100.00,North,359,0.0,3.0,97,0.00,,,0.00,0.000000,,2013-11-03 00:01:00,
2013-11-02 19:22:00,32.0,31.0,-100.00,North,359,0.0,3.0,97,0.00,,,0.00,0.000000,,2013-11-03 00:22:00,
2013-11-02 19:33:00,32.0,31.0,-100.00,North,359,0.0,3.0,97,0.00,,,0.00,0.000000,,2013-11-03 00:33:00,
2013-11-02 19:42:00,32.0,31.0,-100.00,North,359,0.0,3.0,97,0.00,,,0.00,0.000000,,2013-11-03 00:42:00,
2013-11-02 19:52:00,32.0,31.0,-100.00,North,359,0.0,3.0,97,0.00,,,0.00,0.000000,,2013-11-03 00:52:00,
2013-11-02 20:01:00,33.0,32.0,-100.00,WNW,288,0.0,0.0,98,0.00,,,0.00,0.000000,,2013-11-03 01:01:00,
2013-11-02 20:42:00,33.0,32.0,-100.00,WNW,288,0.0,0.0,98,0.00,,,0.00,0.000000,,2013-11-03 01:42:00,
2013-11-02 20:52:00,33.0,32.0,-100.00,WNW,288,0.0,0.0,98,0.00,,,0.00,0.000000,,2013-11-03 01:52:00,
2013-11-02 21:01:00,33.0,32.0,-100.00,NE,40,1.0,3.0,98,0.00,,,0.00,0.000000,,2013-11-03 02:01:00,
2013-11-02 21:43:00,33.0,32.0,-100.00,NE,40,1.0,3.0,98,0.00,,,0.00,0.000000,,2013-11-03 02:43:00,
2013-11-02 21:52:00,33.0,32.0,-100.00,NE,40,1.0,3.0,98,0.00,,,0.00,0.000000,,2013-11-03 02:52:00,
2013-11-02 22:01:00,-999.0,-99.9,-100.00,WSW,252,0.0,3.0,-999,-99.99,,,-99.99,0.000000,,2013-11-03 03:01:00,
2013-11-02 22:45:00,34.0,34.0,-100.00,WSW,252,0.0,3.0,98,0.00,,,0.00,0.000000,,2013-11-03 03:45:00,
2013-11-02 22:54:00,34.0,34.0,-100.00,WSW,252,0.0,3.0,98,0.00,,,0.00,0.000000,,2013-11-03 03:54:00,
2013-11-02 23:01:00,34.0,34.0,-100.00,WSW,242,1.0,2.0,98,0.00,,,0.00,0.000000,,2013-11-03 04:01:00,
2013-11-02 23:44:00,34.0,34.0,-100.00,WSW,242,1.0,2.0,98,0.00,,,0.00,0.000000,,2013-11-03 04:44:00,
2013-11-02 23:52:00,34.0,34.0,-100.00,WSW,242,1.0,2.0,98,0.00,,,0.00,0.000000,,2013-11-03 04:52:00,